« ヘリコプター&防災・防犯フェスティバル2019 小矢部市 2019/8/24 sat | トップページ | ### RJNT log 201908 ### »

2019/08/26

令和元年度射水市総合防災訓練 射水市 2019/8/25 sun

夏から秋に向けて、ローカルな防災訓練が行われます。盆明けたら最初は射水市。

RJNT 242200Z 18004KT 140V210 9999 FEW030 SCT060 24/17 Q1010

20190825_imizu_00imizu

市町村合併して大きくなった射水市。今日は旧大門町の水戸田地区。

20190825_imizu_01imizu

地区センターに馬頭観音(射水南荷馬車組合) 

20190825_imizu_02imizu

水戸田コミュニティセンターが会場

20190825_imizu_03imizu

お隣の水戸田保育園も使用します。

20190825_imizu_05imizu

20190825_imizu_04imizu

会場としては、小規模の地域密着訓練です。

20190825_imizu_06imizu

コミセン内には、いろんなブースが準備済み

20190825_imizu_07imizu

展示車両が集まってきました。自衛隊は地本高岡事務所

RJNT 242300Z 19004KT 100V230 9999 FEW030 26/19 Q1011

20190825_imizu_08imizu

ここは、かつての水戸田小学校跡 二宮尊徳像

20190825_imizu_09imizu

8:30訓練開始 住民への広報活動で消防団が避難広報

20190825_imizu_10imizu

お隣の畑では、無人へりが活動中(訓練とは関係ありません)

RJNT 250000Z VRB03KT 9999 FEW030 27/18 Q1011

20190825_imizu_11imizu

住民が避難してきて、飲料水の配布

20190825_imizu_12ja6768

県消防防災ヘリコプターが情報収集に飛来

20190825_imizu_13ja6768

ドアオープンして、被害状況を確認

20190825_imizu_14ja6768

会場周辺を周回

RJNT 250031Z 28010KT 9999 FEW030 28/16 Q1011 RMK 1CU030 A2985

20190825_imizu_15ja6768

上空からスピーカーで避難告知をして、帰投。お手振りあり。

RJNT 250031Z 28010KT 9999 FEW030 28/16 Q1011 RMK 1CU030 A2985

20190825_imizu_16imizu

消防団警戒出動集結 射水市消防団の南部方面団から7分団が集合。

20190825_imizu_17imizu

続いて一斉放水訓練へ

20190825_imizu_18imizu

ホースを連結して、道路下の暗渠の用水から取水

20190825_imizu_19imizu

参加分団は、水戸田、橋下条、金山、二口、浅井、櫛田、大門

20190825_imizu_20imizu

手早く放水開始

20190825_imizu_21imizu

民家が至近なので、上方には向けず、道路を洗っています。撤収も早かった。これから個別訓練が開始されるのですが、所要で小生は、撤収しました。

20190825_imizu_22ja152t

上空を小矢部を飛び立った JA152T が富山方面へ

今日も、小矢部のヘリコプター&防災・防犯フェスティバル2019が開催されています。

 

|

« ヘリコプター&防災・防犯フェスティバル2019 小矢部市 2019/8/24 sat | トップページ | ### RJNT log 201908 ### »

警務消防」カテゴリの記事

コメント

コメントを書く



(ウェブ上には掲載しません)


コメントは記事投稿者が公開するまで表示されません。



« ヘリコプター&防災・防犯フェスティバル2019 小矢部市 2019/8/24 sat | トップページ | ### RJNT log 201908 ### »